Airport View

Enter AWOS ICAO identifier for current METAR.

ex. KFNL

KOLG 030000Z AUTO 22003KT 10SM CLR 21/13 A2981 RMK AO1

3 Jun 2020 00:06

Frequency: 119.6

Phone: 715-378-2031

Other Area AWOS: KHYR - KSUW - KDYT - KDLH

TAF KHYR 022329Z 0300/0324 23010KT P6SM BKN100 TEMPO 0300/0301 -RA SCT080 FM030300 VRB03KT P6SM BKN250 FM031700 32007KT P6SM SKC AMD NOT SKED